Flight Track Log - Related Links

Times and Time Zones

All times are in EDT time to prevent confusion due to time zone crossing. See the AMF701 flight status page for this flight to view local times or setup timezone preferences in your user account.

Time Position Orientation Groundspeed Altitude Reporting Facility
EDT Latitude Longitude Course Direction KTS MPH feet Rate Location/Type
Tue 05:48:00 AM 45.3000 -75.6667 120° Southeast 110 127 1,000  Level Montreal Center
Tue 05:49:00 AM 45.3167 -75.6167 65° Northeast 130 150 2,300 1,250 Climbing Montreal Center
Tue 05:50:00 AM 45.3167 -75.5667 90° East 140 161 3,500 1,100 Climbing Montreal Center
Tue 05:51:00 AM 45.3000 -75.5167 115° Southeast 140 161 4,500 1,100 Climbing Montreal Center
Tue 05:52:00 AM 45.2667 -75.4667 133° Southeast 150 173 5,700 1,150 Climbing Montreal Center
Tue 05:53:00 AM 45.1358 -75.2563 120° Southeast  Level FlightAware Approximate
Tue 05:53:00 AM 45.2500 -75.4167 115° Southeast 150 173 6,800  Level Montreal Center
Tue 05:54:00 AM 45.2167 -75.3667 133° Southeast 160 184 7,900 1,050 Climbing Montreal Center
Tue 05:55:00 AM 45.2000 -75.3000 110° East 170 196 8,900 550 Climbing Montreal Center
Tue 05:56:00 AM 45.1667 -75.2500 133° Southeast 190 219 9,000 50 Climbing Montreal Center
Tue 05:57:00 AM 45.1333 -75.1833 125° Southeast 200 230 9,000  Level Montreal Center
Tue 05:58:00 AM 45.1000 -75.1167 125° Southeast 200 230 9,000  Level Montreal Center
Tue 05:59:00 AM 45.0667 -75.0667 133° Southeast 200 230 9,000  Level Montreal Center
Tue 06:00:00 AM 45.0333 -75.0000 125° Southeast 200 230 9,000  Level Montreal Center
Tue 06:01:00 AM 45.0000 -74.9333 125° Southeast 200 230 9,000  Level Montreal Center
Tue 06:02:00 AM 44.9667 -74.8500 119° Southeast 210 242 9,000  Level Montreal Center
Tue 06:03:00 AM 44.9500 -74.7833 109° East 210 242 9,000 -37 Level Montreal Center
Tue 06:04:44 AM 44.8978 -74.6878 128° Southeast 206 237 8,900 -37 Descending Boston Center
Tue 06:05:44 AM 44.8764 -74.6106 111° Southeast 206 237 8,900  Level Boston Center
Tue 06:06:44 AM 44.8508 -74.5336 115° Southeast 206 237 8,900 50 Level Boston Center
Tue 06:07:44 AM 44.8142 -74.4767 132° Southeast 206 237 9,000 50 Climbing Boston Center
Tue 06:08:44 AM 44.7736 -74.4197 135° Southeast 200 230 9,000  Level Boston Center
Tue 06:09:44 AM 44.7369 -74.3572 130° Southeast 200 230 9,000  Level Boston Center
Tue 06:10:44 AM 44.6983 -74.2975 132° Southeast 200 230 9,000  Level Boston Center
Tue 06:11:44 AM 44.6578 -74.2406 135° Southeast 200 230 9,000  Level Boston Center
Tue 06:12:56 AM 44.6211 -74.1811 131° Southeast 200 230 9,000  Level Boston Center
Tue 06:13:56 AM 44.5703 -74.1011 132° Southeast 200 230 9,000  Level Boston Center
Tue 06:14:56 AM 44.5336 -74.0447 132° Southeast 200 230 9,000  Level Boston Center
Tue 06:15:56 AM 44.4928 -73.9853 134° Southeast 200 230 9,000  Level Boston Center
Tue 06:16:56 AM 44.4581 -73.9322 133° Southeast 200 230 9,000  Level Boston Center
Tue 06:17:56 AM 44.4192 -73.8731 133° Southeast 200 230 9,000  Level Boston Center
Tue 06:18:56 AM 44.3803 -73.8139 133° Southeast 200 230 9,000  Level Boston Center
Tue 06:19:56 AM 44.3414 -73.7550 133° Southeast 200 230 9,000  Level Boston Center
Tue 06:20:56 AM 44.3003 -73.6961 134° Southeast 200 230 9,000  Level Boston Center
Tue 06:21:56 AM 44.2694 -73.6492 133° Southeast 200 230 9,000  Level Boston Center
Tue 06:22:56 AM 44.2244 -73.5814 133° Southeast 200 230 9,000  Level Boston Center
Tue 06:23:56 AM 44.1814 -73.5169 133° Southeast 206 237 9,000  Level Boston Center
Tue 06:24:56 AM 44.1444 -73.4583 131° Southeast 226 260 9,000  Level Boston Center
Tue 06:25:56 AM 44.1053 -73.4028 134° Southeast 215 247 9,000  Level Boston Center
Tue 06:26:57 AM 44.0661 -73.3444 133° Southeast 210 242 9,000  Level Boston Center
Tue 06:27:56 AM 44.0269 -73.2861 133° Southeast 210 242 9,000  Level Boston Center
Tue 06:28:56 AM 43.9856 -73.2306 136° Southeast 205 236 9,000  Level Boston Center
Tue 06:29:56 AM 43.9464 -73.1725 133° Southeast 199 229 9,000  Level Boston Center
Tue 06:30:56 AM 43.9072 -73.1114 132° Southeast 199 229 9,000  Level Boston Center
Tue 06:31:56 AM 43.8722 -73.0592 133° Southeast 199 229 9,000  Level Boston Center
Tue 06:32:56 AM 43.8350 -73.0042 133° Southeast 199 229 9,000  Level Boston Center
Tue 06:33:56 AM 43.7933 -72.9464 135° Southeast 199 229 9,000  Level Boston Center
Tue 06:34:56 AM 43.7561 -72.8914 133° Southeast 199 229 9,000  Level Boston Center
Tue 06:35:56 AM 43.7250 -72.8453 133° Southeast 199 229 9,000  Level Boston Center
Tue 06:36:56 AM 43.6775 -72.7817 136° Southeast 199 229 9,000  Level Boston Center
Tue 06:37:56 AM 43.6358 -72.7156 131° Southeast 199 229 9,000  Level Boston Center
Tue 06:38:56 AM 43.5944 -72.6581 135° Southeast 205 236 9,000  Level Boston Center
Tue 06:39:56 AM 43.5547 -72.5978 132° Southeast 205 236 9,000  Level Boston Center
Tue 06:40:56 AM 43.5133 -72.5375 133° Southeast 205 236 9,000  Level Boston Center
Tue 06:41:56 AM 43.4736 -72.4831 135° Southeast 205 236 9,000  Level Boston Center
Tue 06:42:56 AM 43.4342 -72.4231 132° Southeast 205 236 9,000  Level Boston Center
Tue 06:44:08 AM 43.3861 -72.3544 134° Southeast 200 230 9,000  Level Boston Center
Tue 06:45:08 AM 43.3464 -72.3003 135° Southeast 200 230 9,000  Level Boston Center
Tue 06:46:08 AM 43.3067 -72.2433 134° Southeast 212 244 9,000  Level Boston Center
Tue 06:47:08 AM 43.2650 -72.1806 132° Southeast 212 244 9,000  Level Boston Center
Tue 06:48:08 AM 43.2272 -72.1294 135° Southeast 212 244 9,000  Level Boston Center
Tue 06:49:08 AM 43.1856 -72.0700 134° Southeast 206 237 9,000  Level Boston Center
Tue 06:50:08 AM 43.1478 -72.0161 134° Southeast 206 237 9,000  Level Boston Center
Tue 06:51:08 AM 43.1058 -71.9567 134° Southeast 199 229 9,000 -200 Level Boston Center
Tue 06:52:08 AM 43.0703 -71.9058 134° Southeast 199 229 8,600 -550 Descending Boston Center
Tue 06:53:08 AM 43.0283 -71.8464 134° Southeast 199 229 7,900 -700 Descending Boston Center
Tue 06:54:08 AM 42.9925 -71.7986 136° Southeast 199 229 7,200 -850 Descending Boston Center
Tue 06:55:08 AM 42.9506 -71.7367 133° Southeast 199 229 6,200 -900 Descending Boston Center
Tue 06:56:08 AM 42.9147 -71.6861 134° Southeast 199 229 5,400 -800 Descending Boston Center
Tue 06:57:08 AM 42.8728 -71.6269 134° Southeast 199 229 4,600 -700 Descending Boston Center
Tue 06:58:08 AM 42.8308 -71.5964 152° Southeast 194 223 4,000 -350 Descending Boston Center
Tue 06:59:08 AM 42.7825 -71.5603 151° Southeast 182 209 3,900  Descending Boston Center
Tue 07:00:08 AM 42.7550 -71.5097 127° Southeast 177 204 4,000  Climbing Boston Center
Tue 07:01:08 AM 42.7275 -71.4394 118° Southeast 188 216 3,900 -150 Descending Boston Center
Tue 07:02:08 AM 42.7019 -71.3806 121° Southeast 193 222 3,700 -620 Descending Boston Center
Tue 07:04:12 AM 42.6500 -71.2333 116° Southeast 194 223 2,000 -557 Descending KA90
Tue 07:05:11 AM 42.6333 -71.1833 114° Southeast 170 196 2,000 -252 Level KA90
Tue 07:06:11 AM 42.5833 -71.2000 194° South 147 169 1,500 -238 Descending KA90
Tue 07:07:17 AM 42.5500 -71.2167 200° South 121 139 1,500 -143 Level KA90
Tue 07:08:17 AM 42.5333 -71.2500 236° Southwest 107 123 1,200 -400 Descending KA90
Tue 07:09:17 AM 42.5000 -71.2667 200° South 110 127 700 -500 Descending KA90
Tue 07:11:00 AM 42.4667 -71.2833 204° Southwest  Level FlightAware Approximate
Tue 07:18:00 AM 42.4699 -71.2890 204° Southwest  Level Estimated

Login

Don't have an account? Register now (free) for customized features, flight alerts, and more!